Observations for DINARD PLEURTUIT, France (LFRD)

LFRD 220730Z AUTO 19006KT CAVOK 12/10 Q1022 TEMPO RA
LFRD 220700Z AUTO 18006KT CAVOK 12/10 Q1021 TEMPO RA
LFRD 220630Z AUTO 18006KT 9999 -RA NSC 12/09 Q1021 TEMPO RA 
LFRD 220600Z AUTO 19005KT 9999 -RA NSC 12/09 Q1022 TEMPO RA 
LFRD 220530Z AUTO 18006KT 9999 -RA ///CB 12/09 Q1022 BECMG SCT045   
LFRD 220500Z AUTO 18006KT CAVOK 11/09 Q1022 NOSIG   
LFRD 220430Z AUTO 19006KT CAVOK 11/09 Q1022 NOSIG   
LFRD 220400Z AUTO 20005KT CAVOK 11/09 Q1022 NOSIG   
LFRD 220330Z AUTO 22003KT CAVOK 11/09 Q1023 NOSIG   
LFRD 220300Z AUTO 22002KT CAVOK 12/09 Q1023 NOSIG   
LFRD 220230Z AUTO 22005KT CAVOK 12/09 Q1023 NOSIG   
LFRD 220200Z AUTO 21005KT CAVOK 12/08 Q1023 NOSIG   
LFRD 220130Z AUTO 21005KT CAVOK 11/08 Q1023 NOSIG   
LFRD 220100Z AUTO 22006KT CAVOK 12/08 Q1023 NOSIG   
LFRD 220030Z AUTO 21006KT CAVOK 11/08 Q1023 NOSIG   
LFRD 220000Z AUTO 21005KT CAVOK 11/08 Q1023 NOSIG   
LFRD 212330Z AUTO 22005KT CAVOK 12/08 Q1023 NOSIG   
LFRD 212300Z AUTO 21006KT CAVOK 11/08 Q1023 NOSIG   
LFRD 212230Z AUTO 20006KT CAVOK 11/08 Q1023 NOSIG   
LFRD 212200Z AUTO 21005KT CAVOK 11/08 Q1023 NOSIG   
LFRD 212130Z AUTO 20005KT CAVOK 10/07 Q1023 NOSIG   
LFRD 212100Z AUTO 20005KT CAVOK 10/07 Q1023 NOSIG   
LFRD 212030Z AUTO 19005KT CAVOK 11/07 Q1022 NOSIG   
LFRD 212000Z AUTO 23003KT CAVOK 11/07 Q1022 NOSIG   
LFRD 211930Z AUTO 19004KT CAVOK 12/07 Q1022 NOSIG   
LFRD 211900Z AUTO 20004KT CAVOK 12/07 Q1022 NOSIG   
LFRD 211830Z AUTO 26004KT CAVOK 13/07 Q1021 NOSIG   
LFRD 211800Z AUTO 27005KT CAVOK 14/07 Q1021 NOSIG   
LFRD 211730Z AUTO 29009KT CAVOK 15/07 Q1021 NOSIG   
LFRD 211700Z AUTO 29011KT CAVOK 15/06 Q1021 BECMG 23005KT   
LFRD 211630Z AUTO 29013KT CAVOK 16/06 Q1020 NOSIG   
LFRD 211600Z AUTO 28014KT CAVOK 17/06 Q1020 NOSIG   
LFRD 211530Z AUTO 30014KT 9999 FEW043 16/07 Q1020 TEMPO 27015G25KT  
LFRD 211500Z AUTO 28015KT 240V300 9999 FEW048 17/06 Q1020 TEMPO 27015G25KT  
LFRD 211430Z AUTO 31013KT 9999 BKN048 17/07 Q1020 TEMPO 27015G25KT  
LFRD 211400Z AUTO 29014KT 260V320 9999 SCT048 17/07 Q1019 TEMPO 27015G25KT  
LFRD 211330Z AUTO 30014KT 9999 SCT042 BKN052 17/07 Q1019 TEMPO 27015G25KT   
LFRD 211300Z AUTO 29012KT 9999 FEW040 SCT054 BKN076 17/09 Q1019 TEMPO 27015G25KT
LFRD 211230Z AUTO 28017KT 9999 FEW042 SCT058 BKN076 17/08 Q1019 TEMPO 27015G25KT
LFRD 211200Z AUTO 27016KT 9999 FEW032 BKN052 17/08 Q1018 TEMPO 27015G25KT   
LFRD 211130Z AUTO 30011KT 250V340 9999 BKN044 BKN052 BKN064 17/09 Q1018 TEMPO 27015G25KT
LFRD 211100Z AUTO 28014KT 240V300 9999 SCT039 SCT045 BKN054 16/08 Q1017 TEMPO 27015G25KT
LFRD 211030Z AUTO 26013KT 230V290 9999 BKN035 BKN043 BKN056 15/08 Q1017 TEMPO 27015G25KT SHRA   
LFRD 211000Z AUTO 28012KT 9999 BKN036 BKN044 BKN054 16/09 Q1017 TEMPO 27015G25KT SHRA   
LFRD 210930Z AUTO 29014KT 9999 FEW036 15/08 Q1017 TEMPO 27015G25KT SHRA 
LFRD 210900Z AUTO 28013KT 240V300 9999 FEW031 BKN038 BKN049 15/08 Q1016 TEMPO 27015G25KT SHRA   
LFRD 210830Z AUTO 29017KT 9999 SCT038 15/07 Q1015 TEMPO 27015G25KT SHRA 
LFRD 210800Z AUTO 28013KT 9999 BKN035 BKN052 14/09 Q1015 TEMPO 27015G25KT SHRA  
LFRD 210730Z AUTO 28012KT 9999 BKN033 BKN043 BKN052 14/09 Q1014 TEMPO 27015G25KT SHRA   
LFRD 210700Z AUTO 28013KT 9999 FEW041 BKN050 13/09 Q1013 TEMPO 27015G25KT SHRA